UAL644 KDEN-KPDX
Flight info
| Callsign | UAL644 |
|---|---|
| Flight time | N/A |
| Altitude | 36000 |
| Route | ZIMMR4 CHNGY NLSEN KU78M JOTBA HHOOD6 |
| Aircraft | B739/M-SDE2E3FGHIRWXY/LB1 |
Departure
| Time | 2026-05-07 00:50 |
|---|---|
| Airport | Denver International Airport (KDEN) |
Arrival
| Time | N/A |
|---|---|
| Airport | Portland International Airport (KPDX) |
| Time | Latitude | Longitude | Altitude | Speed | Heading |
|---|---|---|---|---|---|
| 2026-05-07 00:20 | 39.85940 | -104.67914 | 5365 ft | 0 kts | 180° |
| 2026-05-07 00:35 | 39.85946 | -104.67914 | 5365 ft | 4 kts | 180° |
| 2026-05-07 00:35 | 39.85973 | -104.67914 | 5363 ft | 4 kts | 180° |
| 2026-05-07 00:36 | 39.86000 | -104.67914 | 5362 ft | 4 kts | 180° |
| 2026-05-07 00:36 | 39.86011 | -104.67914 | 5363 ft | 1 kts | 180° |
| 2026-05-07 00:40 | 39.86011 | -104.67915 | 5365 ft | 0 kts | 187° |
| 2026-05-07 00:40 | 39.86010 | -104.67917 | 5365 ft | 0 kts | 210° |
| 2026-05-07 00:40 | 39.86009 | -104.67924 | 5365 ft | 2 kts | 253° |
| 2026-05-07 00:40 | 39.86014 | -104.67960 | 5365 ft | 6 kts | 295° |
| 2026-05-07 00:41 | 39.86049 | -104.68015 | 5365 ft | 9 kts | 312° |
| 2026-05-07 00:41 | 39.86071 | -104.68093 | 5365 ft | 9 kts | 271° |
| 2026-05-07 00:41 | 39.86079 | -104.68174 | 5365 ft | 9 kts | 302° |
| 2026-05-07 00:41 | 39.86131 | -104.68215 | 5364 ft | 9 kts | 314° |
| 2026-05-07 00:42 | 39.86140 | -104.68292 | 5365 ft | 9 kts | 271° |
| 2026-05-07 00:42 | 39.86137 | -104.68368 | 5363 ft | 8 kts | 245° |
| 2026-05-07 00:42 | 39.86086 | -104.68392 | 5365 ft | 8 kts | 180° |
| 2026-05-07 00:42 | 39.86030 | -104.68392 | 5363 ft | 8 kts | 180° |
| 2026-05-07 00:43 | 39.85977 | -104.68392 | 5364 ft | 8 kts | 180° |
| 2026-05-07 00:43 | 39.85925 | -104.68392 | 5364 ft | 7 kts | 181° |
| 2026-05-07 00:43 | 39.85874 | -104.68393 | 5363 ft | 7 kts | 181° |
| 2026-05-07 00:43 | 39.85826 | -104.68394 | 5363 ft | 7 kts | 181° |
| 2026-05-07 00:44 | 39.85773 | -104.68395 | 5364 ft | 8 kts | 181° |
| 2026-05-07 00:44 | 39.85713 | -104.68396 | 5364 ft | 9 kts | 180° |
| 2026-05-07 00:44 | 39.85648 | -104.68396 | 5363 ft | 10 kts | 180° |
| 2026-05-07 00:44 | 39.85578 | -104.68397 | 5363 ft | 10 kts | 180° |
| 2026-05-07 00:45 | 39.85504 | -104.68398 | 5364 ft | 11 kts | 180° |
| 2026-05-07 00:45 | 39.85428 | -104.68399 | 5364 ft | 11 kts | 180° |
| 2026-05-07 00:45 | 39.85353 | -104.68400 | 5363 ft | 11 kts | 180° |
| 2026-05-07 00:45 | 39.85280 | -104.68401 | 5364 ft | 10 kts | 180° |
| 2026-05-07 00:46 | 39.85214 | -104.68421 | 5363 ft | 10 kts | 227° |
| 2026-05-07 00:46 | 39.85204 | -104.68508 | 5365 ft | 10 kts | 270° |
| 2026-05-07 00:46 | 39.85203 | -104.68597 | 5365 ft | 10 kts | 269° |
| 2026-05-07 00:46 | 39.85202 | -104.68696 | 5364 ft | 12 kts | 269° |
| 2026-05-07 00:47 | 39.85201 | -104.68808 | 5362 ft | 13 kts | 268° |
| 2026-05-07 00:47 | 39.85198 | -104.68933 | 5365 ft | 14 kts | 269° |
| 2026-05-07 00:47 | 39.85196 | -104.69068 | 5365 ft | 15 kts | 269° |
| 2026-05-07 00:47 | 39.85196 | -104.69203 | 5364 ft | 15 kts | 272° |
| 2026-05-07 00:48 | 39.85199 | -104.69333 | 5363 ft | 14 kts | 271° |
| 2026-05-07 00:48 | 39.85201 | -104.69415 | 5362 ft | 14 kts | 271° |
| 2026-05-07 00:48 | 39.85202 | -104.69536 | 5365 ft | 13 kts | 270° |
| 2026-05-07 00:48 | 39.85215 | -104.69634 | 5365 ft | 10 kts | 306° |
| 2026-05-07 00:49 | 39.85280 | -104.69656 | 5365 ft | 10 kts | 1° |
| 2026-05-07 00:49 | 39.85382 | -104.69655 | 5364 ft | 25 kts | 0° |
| 2026-05-07 00:49 | 39.85795 | -104.69650 | 5367 ft | 93 kts | 0° |
| 2026-05-07 00:49 | 39.86651 | -104.69641 | 5365 ft | 151 kts | 0° |
| 2026-05-07 00:50 | 39.87843 | -104.69626 | 5382 ft | 194 kts | 0° |
| 2026-05-07 00:50 | 39.89251 | -104.69612 | 5814 ft | 206 kts | 0° |
| 2026-05-07 00:50 | 39.90705 | -104.69618 | 6556 ft | 212 kts | 353° |
| 2026-05-07 00:50 | 39.92123 | -104.70218 | 6993 ft | 220 kts | 324° |
| 2026-05-07 00:51 | 39.93084 | -104.71693 | 7602 ft | 213 kts | 288° |
| 2026-05-07 00:51 | 39.93223 | -104.73545 | 8309 ft | 206 kts | 269° |
| 2026-05-07 00:51 | 39.93217 | -104.75418 | 8735 ft | 212 kts | 271° |
| 2026-05-07 00:51 | 39.93224 | -104.77373 | 9171 ft | 220 kts | 272° |
| 2026-05-07 00:52 | 39.93227 | -104.79431 | 9507 ft | 233 kts | 272° |
| 2026-05-07 00:52 | 39.93227 | -104.81592 | 9835 ft | 245 kts | 272° |
| 2026-05-07 00:52 | 39.93226 | -104.83879 | 10131 ft | 260 kts | 272° |
| 2026-05-07 00:52 | 39.93223 | -104.86320 | 10497 ft | 275 kts | 272° |
| 2026-05-07 00:53 | 39.93222 | -104.86398 | 10507 ft | 275 kts | 272° |
| 2026-05-07 00:53 | 39.93222 | -104.86760 | 10592 ft | 276 kts | 272° |
| 2026-05-07 00:53 | 39.93216 | -104.89239 | 11344 ft | 277 kts | 272° |
| 2026-05-07 00:53 | 39.93223 | -104.91749 | 12133 ft | 277 kts | 274° |
| 2026-05-07 00:54 | 39.93283 | -104.94263 | 12894 ft | 279 kts | 275° |
| 2026-05-07 00:54 | 39.93352 | -104.96805 | 13647 ft | 281 kts | 275° |
| 2026-05-07 00:54 | 39.93418 | -104.99368 | 14329 ft | 284 kts | 276° |
| 2026-05-07 00:54 | 39.93482 | -105.01966 | 14888 ft | 291 kts | 276° |
| 2026-05-07 00:55 | 39.93545 | -105.04632 | 15465 ft | 296 kts | 276° |
| 2026-05-07 00:55 | 39.93606 | -105.07309 | 16037 ft | 301 kts | 277° |
| 2026-05-07 00:55 | 39.93669 | -105.10068 | 16620 ft | 307 kts | 277° |
| 2026-05-07 00:55 | 39.93731 | -105.12866 | 17188 ft | 312 kts | 278° |
| 2026-05-07 00:56 | 39.93795 | -105.15726 | 17757 ft | 318 kts | 278° |
| 2026-05-07 00:56 | 39.93858 | -105.18631 | 18316 ft | 323 kts | 278° |
| 2026-05-07 00:56 | 39.93922 | -105.21586 | 18827 ft | 328 kts | 279° |
| 2026-05-07 00:56 | 39.94058 | -105.24555 | 19387 ft | 328 kts | 283° |
| 2026-05-07 00:57 | 39.94305 | -105.27520 | 19956 ft | 329 kts | 284° |
| 2026-05-07 00:57 | 39.94562 | -105.30463 | 20522 ft | 332 kts | 284° |
| 2026-05-07 00:57 | 39.94814 | -105.33464 | 21039 ft | 335 kts | 284° |
| 2026-05-07 00:57 | 39.95058 | -105.36510 | 21563 ft | 338 kts | 283° |
| 2026-05-07 00:58 | 39.95299 | -105.39577 | 22122 ft | 341 kts | 283° |
| 2026-05-07 00:58 | 39.95547 | -105.42707 | 22333 ft | 355 kts | 283° |
| 2026-05-07 00:58 | 39.95807 | -105.45976 | 22442 ft | 370 kts | 283° |
| 2026-05-07 00:58 | 39.96074 | -105.49375 | 22598 ft | 383 kts | 283° |
| 2026-05-07 00:59 | 39.96614 | -105.56385 | 23537 ft | 391 kts | 282° |
| 2026-05-07 00:59 | 39.96882 | -105.59931 | 24042 ft | 393 kts | 283° |
| 2026-05-07 00:59 | 39.97149 | -105.63443 | 24503 ft | 395 kts | 283° |
| 2026-05-07 01:00 | 39.97415 | -105.67022 | 24832 ft | 399 kts | 282° |
| 2026-05-07 01:00 | 39.97638 | -105.70694 | 24914 ft | 413 kts | 281° |
| 2026-05-07 01:00 | 39.97836 | -105.74506 | 25039 ft | 424 kts | 280° |
| 2026-05-07 01:00 | 39.98017 | -105.78377 | 25325 ft | 429 kts | 280° |
| 2026-05-07 01:01 | 39.98194 | -105.82277 | 25762 ft | 430 kts | 280° |
| 2026-05-07 01:01 | 39.98373 | -105.86180 | 26212 ft | 431 kts | 280° |
| 2026-05-07 01:01 | 39.98557 | -105.90084 | 26592 ft | 433 kts | 281° |
| 2026-05-07 01:01 | 39.98744 | -105.93971 | 26917 ft | 436 kts | 281° |
| 2026-05-07 01:02 | 39.98934 | -105.97938 | 27293 ft | 438 kts | 281° |
| 2026-05-07 01:02 | 39.99127 | -106.01910 | 27691 ft | 440 kts | 281° |
| 2026-05-07 01:02 | 39.99318 | -106.05891 | 28044 ft | 442 kts | 281° |
| 2026-05-07 01:02 | 39.99511 | -106.09914 | 28356 ft | 444 kts | 281° |
| 2026-05-07 01:03 | 39.99703 | -106.13951 | 28686 ft | 446 kts | 281° |
| 2026-05-07 01:03 | 39.99894 | -106.18006 | 29007 ft | 449 kts | 281° |
| 2026-05-07 01:03 | 40.00083 | -106.22072 | 29346 ft | 450 kts | 281° |
| 2026-05-07 01:03 | 40.00267 | -106.26100 | 29801 ft | 450 kts | 281° |
| 2026-05-07 01:04 | 40.00451 | -106.30157 | 30312 ft | 447 kts | 281° |
| 2026-05-07 01:04 | 40.00633 | -106.34195 | 30729 ft | 445 kts | 281° |
| 2026-05-07 01:04 | 40.00817 | -106.38231 | 31075 ft | 445 kts | 281° |
| 2026-05-07 01:04 | 40.00999 | -106.42269 | 31421 ft | 445 kts | 281° |
| 2026-05-07 01:05 | 40.01258 | -106.46274 | 31799 ft | 438 kts | 288° |
| 2026-05-07 01:05 | 40.02242 | -106.49918 | 32102 ft | 420 kts | 305° |
| 2026-05-07 01:05 | 40.03635 | -106.53252 | 32527 ft | 417 kts | 304° |
| 2026-05-07 01:05 | 40.04971 | -106.56623 | 32833 ft | 418 kts | 303° |
| 2026-05-07 01:06 | 40.06274 | -106.60022 | 33110 ft | 419 kts | 303° |
| 2026-05-07 01:06 | 40.07563 | -106.63435 | 33450 ft | 418 kts | 303° |
| 2026-05-07 01:06 | 40.08842 | -106.66842 | 33826 ft | 417 kts | 303° |
| 2026-05-07 01:06 | 40.10117 | -106.70236 | 34163 ft | 416 kts | 303° |
| 2026-05-07 01:07 | 40.11392 | -106.73627 | 34400 ft | 416 kts | 303° |
| 2026-05-07 01:07 | 40.12668 | -106.77014 | 34609 ft | 416 kts | 303° |
| 2026-05-07 01:07 | 40.13413 | -106.78990 | 34749 ft | 415 kts | 303° |
| 2026-05-07 01:07 | 40.14689 | -106.82379 | 35013 ft | 415 kts | 302° |
| 2026-05-07 01:08 | 40.15943 | -106.85709 | 35260 ft | 414 kts | 302° |
| 2026-05-07 01:08 | 40.17214 | -106.89087 | 35489 ft | 414 kts | 302° |
| 2026-05-07 01:08 | 40.18487 | -106.92474 | 35711 ft | 414 kts | 302° |
| 2026-05-07 01:08 | 40.19760 | -106.95862 | 35845 ft | 416 kts | 302° |
| 2026-05-07 01:09 | 40.21035 | -106.99258 | 35973 ft | 418 kts | 302° |
| 2026-05-07 01:09 | 40.22322 | -107.02693 | 36103 ft | 420 kts | 302° |
| 2026-05-07 01:09 | 40.23614 | -107.06145 | 36164 ft | 422 kts | 302° |
| 2026-05-07 01:10 | 40.26193 | -107.13053 | 36181 ft | 425 kts | 302° |
| 2026-05-07 01:10 | 40.28778 | -107.19996 | 36187 ft | 424 kts | 302° |
| 2026-05-07 01:11 | 40.31355 | -107.26937 | 36182 ft | 423 kts | 302° |
| 2026-05-07 01:11 | 40.33926 | -107.33873 | 36191 ft | 422 kts | 302° |
| 2026-05-07 01:12 | 40.36490 | -107.40805 | 36193 ft | 422 kts | 302° |
| 2026-05-07 01:12 | 40.39028 | -107.47680 | 36186 ft | 421 kts | 302° |
| 2026-05-07 01:13 | 40.41576 | -107.54602 | 36194 ft | 420 kts | 302° |
| 2026-05-07 01:13 | 40.44118 | -107.61525 | 36188 ft | 420 kts | 302° |
| 2026-05-07 01:14 | 40.46651 | -107.68439 | 36176 ft | 419 kts | 302° |
| 2026-05-07 01:14 | 40.49159 | -107.75300 | 36185 ft | 419 kts | 302° |
| 2026-05-07 01:15 | 40.51676 | -107.82203 | 36170 ft | 418 kts | 302° |
| 2026-05-07 01:15 | 40.54188 | -107.89110 | 36150 ft | 419 kts | 302° |
| 2026-05-07 01:16 | 40.56696 | -107.96019 | 36142 ft | 419 kts | 301° |
| 2026-05-07 01:16 | 40.59332 | -108.02838 | 36140 ft | 416 kts | 306° |
| 2026-05-07 01:17 | 40.62264 | -108.09406 | 36142 ft | 415 kts | 306° |
| 2026-05-07 01:17 | 40.65210 | -108.15962 | 36135 ft | 416 kts | 306° |
| 2026-05-07 01:18 | 40.68124 | -108.22504 | 36137 ft | 417 kts | 306° |
| 2026-05-07 01:18 | 40.71049 | -108.29118 | 36131 ft | 417 kts | 306° |
| 2026-05-07 01:19 | 40.73962 | -108.35733 | 36140 ft | 417 kts | 306° |
| 2026-05-07 01:19 | 40.76871 | -108.42353 | 36136 ft | 417 kts | 306° |
| 2026-05-07 01:20 | 40.79763 | -108.48950 | 36139 ft | 416 kts | 306° |
| 2026-05-07 01:20 | 40.82659 | -108.55567 | 36138 ft | 416 kts | 305° |
| 2026-05-07 01:21 | 40.85552 | -108.62195 | 36147 ft | 415 kts | 305° |
| 2026-05-07 01:21 | 40.88435 | -108.68812 | 36146 ft | 415 kts | 305° |
| 2026-05-07 01:22 | 40.91310 | -108.75424 | 36149 ft | 414 kts | 305° |
| 2026-05-07 01:22 | 40.94176 | -108.82032 | 36147 ft | 413 kts | 305° |
| 2026-05-07 01:23 | 40.97030 | -108.88627 | 36158 ft | 413 kts | 305° |
| 2026-05-07 01:23 | 40.99864 | -108.95189 | 36152 ft | 412 kts | 305° |
| 2026-05-07 01:24 | 41.02707 | -109.01786 | 36140 ft | 412 kts | 305° |
| 2026-05-07 01:24 | 41.05542 | -109.08382 | 36153 ft | 411 kts | 305° |
| 2026-05-07 01:25 | 41.08376 | -109.14985 | 36140 ft | 411 kts | 305° |
| 2026-05-07 01:25 | 41.11199 | -109.21578 | 36137 ft | 411 kts | 305° |
| 2026-05-07 01:26 | 41.13999 | -109.28134 | 36140 ft | 411 kts | 305° |
| 2026-05-07 01:26 | 41.16822 | -109.34756 | 36138 ft | 412 kts | 304° |
| 2026-05-07 01:27 | 41.19645 | -109.41392 | 36141 ft | 412 kts | 304° |
| 2026-05-07 01:27 | 41.22466 | -109.48039 | 36129 ft | 413 kts | 304° |
| 2026-05-07 01:28 | 41.25287 | -109.54702 | 36123 ft | 413 kts | 304° |
| 2026-05-07 01:28 | 41.28101 | -109.61365 | 36120 ft | 414 kts | 304° |
| 2026-05-07 01:29 | 41.30897 | -109.67997 | 36122 ft | 414 kts | 304° |
| 2026-05-07 01:29 | 41.33705 | -109.74674 | 36119 ft | 413 kts | 304° |
| 2026-05-07 01:30 | 41.36509 | -109.81355 | 36118 ft | 412 kts | 304° |
| 2026-05-07 01:30 | 41.39305 | -109.88034 | 36122 ft | 412 kts | 304° |
| 2026-05-07 01:31 | 41.42071 | -109.94655 | 36127 ft | 411 kts | 304° |
| 2026-05-07 01:31 | 41.44847 | -110.01314 | 36148 ft | 410 kts | 304° |
| 2026-05-07 01:32 | 41.47617 | -110.07974 | 36158 ft | 410 kts | 303° |
| 2026-05-07 01:32 | 41.50377 | -110.14625 | 36172 ft | 409 kts | 303° |
| 2026-05-07 01:33 | 41.53135 | -110.21284 | 36187 ft | 409 kts | 303° |
| 2026-05-07 01:33 | 41.55422 | -110.26818 | 36185 ft | 409 kts | 303° |
| 2026-05-07 01:34 | 41.58613 | -110.34558 | 36184 ft | 409 kts | 303° |
| 2026-05-07 01:34 | 41.60907 | -110.40134 | 36174 ft | 408 kts | 303° |
| 2026-05-07 01:35 | 41.63624 | -110.46754 | 36156 ft | 408 kts | 303° |
| 2026-05-07 01:35 | 41.66817 | -110.54551 | 36166 ft | 409 kts | 303° |
| 2026-05-07 01:36 | 41.69082 | -110.60092 | 36165 ft | 409 kts | 303° |
| 2026-05-07 01:36 | 41.71807 | -110.66775 | 36171 ft | 409 kts | 303° |
| 2026-05-07 01:37 | 41.74521 | -110.73447 | 36164 ft | 410 kts | 303° |
| 2026-05-07 01:37 | 41.77245 | -110.80158 | 36150 ft | 410 kts | 302° |
| 2026-05-07 01:38 | 41.79965 | -110.86874 | 36144 ft | 410 kts | 302° |
| 2026-05-07 01:38 | 41.82670 | -110.93570 | 36116 ft | 410 kts | 302° |
| 2026-05-07 01:39 | 41.85388 | -111.00312 | 36103 ft | 410 kts | 302° |
| 2026-05-07 01:39 | 41.88099 | -111.07053 | 36092 ft | 410 kts | 302° |
| 2026-05-07 01:40 | 41.90800 | -111.13785 | 36096 ft | 410 kts | 302° |
| 2026-05-07 01:40 | 41.93504 | -111.20539 | 36098 ft | 410 kts | 302° |
| 2026-05-07 01:41 | 41.96187 | -111.27255 | 36092 ft | 410 kts | 302° |
| 2026-05-07 01:41 | 41.98885 | -111.34027 | 36088 ft | 410 kts | 302° |
| 2026-05-07 01:42 | 42.01579 | -111.40803 | 36090 ft | 410 kts | 302° |
| 2026-05-07 01:42 | 42.04253 | -111.47543 | 36100 ft | 410 kts | 302° |
| 2026-05-07 01:43 | 42.06936 | -111.54323 | 36101 ft | 411 kts | 302° |
| 2026-05-07 01:43 | 42.09625 | -111.61135 | 36096 ft | 411 kts | 302° |
| 2026-05-07 01:44 | 42.12309 | -111.67949 | 36090 ft | 411 kts | 302° |
| 2026-05-07 01:44 | 42.14968 | -111.74715 | 36077 ft | 412 kts | 302° |
| 2026-05-07 01:45 | 42.17642 | -111.81536 | 36089 ft | 411 kts | 302° |
| 2026-05-07 01:45 | 42.20311 | -111.88360 | 36075 ft | 410 kts | 302° |
| 2026-05-07 01:46 | 42.22966 | -111.95166 | 36070 ft | 409 kts | 301° |
| 2026-05-07 01:46 | 42.25614 | -112.01970 | 36077 ft | 408 kts | 301° |
| 2026-05-07 01:47 | 42.28137 | -112.08464 | 36030 ft | 407 kts | 301° |
| 2026-05-07 01:47 | 42.28324 | -112.08950 | 36028 ft | 407 kts | 301° |
| 2026-05-07 01:48 | 42.30258 | -112.13948 | 36063 ft | 410 kts | 301° |